Terminal Aerodrome Forecast
Issued by NWS Paducah, KY

Home | Current Version | Previous Version | Graphics & Text | Print | Product List | Glossary On
Versions: 1 2 3 4 5 6 7 8 9 10 11 12 13 14 15 16 17
000
FTUS43 KPAH 232324
TAFEVV
TAF
KEVV 232324Z 2400/2424 33003KT P6SM VCSH BKN090
     FM240500 32003KT P6SM -SHRA OVC050
     FM241000 33003KT 5SM -RA BR SCT010 OVC020
     FM242100 32007KT P6SM OVC025=

USA.gov is the U.S. government's official web portal to all federal, state and local government web resources and services.